createdAt,value
2023-05-05T00:01:03.404Z,12.80
2023-05-05T00:03:33.596Z,12.40
2023-05-05T00:06:01.798Z,12.50
2023-05-05T00:08:30.292Z,13.60
2023-05-05T00:10:58.451Z,9.80
2023-05-05T00:13:26.827Z,13.40
2023-05-05T00:15:55.416Z,12.90
2023-05-05T00:18:23.615Z,12.40
2023-05-05T00:20:51.853Z,14.20
2023-05-05T00:23:20.651Z,13.90
2023-05-05T00:25:48.814Z,12.80
2023-05-05T00:28:17.411Z,14.40
2023-05-05T00:30:45.672Z,13.80
2023-05-05T00:33:13.862Z,12.60
2023-05-05T00:35:42.545Z,11.40
2023-05-05T00:38:10.712Z,14.40
2023-05-05T00:40:38.983Z,12.00
2023-05-05T00:43:07.869Z,12.60
2023-05-05T00:45:37.573Z,11.50
2023-05-05T00:48:06.404Z,11.40
2023-05-05T00:50:35.356Z,11.00
2023-05-05T00:53:06.114Z,13.70
2023-05-05T00:55:35.609Z,12.90
2023-05-05T00:58:06.837Z,13.70
2023-05-05T01:00:35.315Z,14.70
2023-05-05T01:03:03.635Z,16.40
2023-05-05T01:05:50.397Z,15.10
2023-05-05T01:08:40.795Z,14.60
2023-05-05T01:11:31.798Z,11.90
2023-05-05T01:14:19.628Z,12.70
2023-05-05T01:16:59.579Z,13.20
2023-05-05T01:20:12.499Z,15.00
2023-05-05T01:22:47.717Z,12.40
2023-05-05T01:25:37.312Z,13.40
2023-05-05T01:28:50.954Z,13.20
2023-05-05T01:31:37.502Z,13.40
2023-05-05T01:34:09.208Z,13.00
2023-05-05T01:36:40.141Z,13.40
2023-05-05T01:39:11.490Z,15.30
2023-05-05T01:41:48.461Z,15.90
2023-05-05T01:44:19.180Z,15.10
2023-05-05T01:46:49.110Z,15.80
2023-05-05T01:49:17.325Z,14.20
2023-05-05T01:51:46.713Z,14.40
2023-05-05T01:54:15.670Z,15.10
2023-05-05T01:56:43.952Z,13.10
2023-05-05T01:59:13.146Z,17.20
2023-05-05T02:01:44.890Z,13.60
2023-05-05T02:04:14.627Z,14.30
2023-05-05T02:06:44.114Z,13.40
2023-05-05T02:09:13.416Z,18.10
2023-05-05T02:11:41.789Z,14.70
2023-05-05T02:14:10.988Z,13.90
2023-05-05T02:16:41.434Z,12.60
2023-05-05T02:19:10.215Z,14.00
2023-05-05T02:21:38.479Z,15.60
2023-05-05T02:24:08.600Z,17.30
2023-05-05T02:26:40.154Z,15.80
2023-05-05T02:29:12.176Z,15.20
2023-05-05T02:31:45.217Z,15.90
2023-05-05T02:34:16.856Z,16.20
2023-05-05T02:36:45.327Z,16.90
2023-05-05T02:39:32.136Z,14.40
2023-05-05T02:42:03.567Z,12.60
2023-05-05T02:44:33.304Z,19.30
2023-05-05T02:47:03.996Z,14.20
2023-05-05T02:49:33.220Z,16.90
2023-05-05T02:52:01.803Z,16.80
2023-05-05T02:54:33.976Z,16.90
2023-05-05T02:59:51.205Z,14.10
2023-05-05T03:02:27.445Z,15.30
2023-05-05T03:05:15.811Z,16.00
2023-05-05T03:07:51.866Z,16.20
2023-05-05T03:10:22.195Z,15.70
2023-05-05T03:12:58.170Z,17.60
2023-05-05T03:15:36.961Z,16.50
2023-05-05T03:18:06.680Z,15.20
2023-05-05T03:20:35.562Z,14.00
2023-05-05T03:23:08.034Z,16.60
2023-05-05T03:25:43.657Z,16.40
2023-05-05T03:28:12.775Z,13.40
2023-05-05T03:30:42.176Z,15.00
2023-05-05T03:33:11.683Z,12.60
2023-05-05T03:35:40.673Z,17.30
2023-05-05T03:38:10.175Z,17.00
2023-05-05T03:40:44.134Z,12.40
2023-05-05T03:43:13.597Z,16.40
2023-05-05T03:45:41.821Z,13.20
2023-05-05T03:48:10.231Z,16.40
2023-05-05T03:50:39.640Z,16.10
2023-05-05T03:53:08.221Z,14.60
2023-05-05T03:55:36.390Z,13.60
2023-05-05T03:58:04.568Z,14.40
2023-05-05T04:00:33.563Z,13.70
2023-05-05T04:03:02.236Z,12.50
2023-05-05T04:05:30.827Z,15.30
2023-05-05T04:07:59.118Z,14.00
2023-05-05T04:10:27.581Z,13.60
2023-05-05T04:12:55.794Z,14.90
2023-05-05T04:15:24.229Z,15.80
2023-05-05T04:17:52.533Z,14.50
2023-05-05T04:20:20.783Z,14.40
2023-05-05T04:22:50.195Z,13.20
2023-05-05T04:25:20.097Z,15.40
2023-05-05T04:27:48.888Z,15.30
2023-05-05T04:30:17.485Z,12.80
2023-05-05T04:32:47.197Z,17.50
2023-05-05T04:35:15.856Z,12.20
2023-05-05T04:37:44.336Z,17.10
2023-05-05T04:40:13.331Z,18.50
2023-05-05T04:42:41.804Z,21.10
2023-05-05T04:45:11.208Z,18.30
2023-05-05T04:47:40.650Z,23.50
2023-05-05T04:50:09.934Z,19.00
2023-05-05T04:52:38.293Z,20.20
2023-05-05T04:55:07.240Z,20.90
2023-05-05T04:57:35.661Z,20.70
2023-05-05T05:00:05.589Z,20.20
2023-05-05T05:02:34.030Z,21.00
2023-05-05T05:05:02.836Z,18.20
2023-05-05T05:07:31.212Z,17.20
2023-05-05T05:09:59.599Z,20.60
2023-05-05T05:12:27.726Z,18.90
2023-05-05T05:14:56.133Z,20.40
2023-05-05T05:17:25.114Z,21.90
2023-05-05T05:19:55.341Z,24.40
2023-05-05T05:33:06.988Z,19.40
2023-05-05T05:35:36.026Z,18.10
2023-05-05T05:38:05.322Z,20.30
2023-05-05T05:40:33.609Z,16.80
2023-05-05T05:43:03.131Z,22.40
2023-05-05T05:45:31.781Z,22.60
2023-05-05T05:47:59.927Z,19.10
2023-05-05T05:50:28.859Z,20.80
2023-05-05T05:52:57.561Z,21.90
2023-05-05T05:55:26.212Z,20.00
2023-05-05T05:57:55.006Z,20.90
2023-05-05T06:00:23.483Z,19.10
2023-05-05T06:02:56.355Z,21.10
2023-05-05T06:05:27.098Z,21.40
2023-05-05T06:07:55.878Z,18.30
2023-05-05T06:10:30.324Z,20.70
2023-05-05T06:13:02.828Z,18.90
2023-05-05T06:15:31.666Z,19.00
2023-05-05T06:18:00.794Z,18.00
2023-05-05T06:20:29.154Z,17.00
2023-05-05T06:22:57.712Z,21.30
2023-05-05T06:25:27.013Z,19.50
2023-05-05T06:27:55.388Z,21.60
2023-05-05T06:30:23.562Z,21.40
2023-05-05T06:32:52.277Z,19.90
2023-05-05T06:35:21.028Z,20.70
2023-05-05T06:37:49.107Z,16.50
2023-05-05T06:40:17.482Z,17.90
2023-05-05T06:42:45.856Z,22.70
2023-05-05T06:45:17.716Z,20.60
2023-05-05T06:47:46.119Z,19.30
2023-05-05T06:50:14.269Z,18.70
2023-05-05T06:52:42.758Z,19.20
2023-05-05T06:55:10.918Z,20.60
2023-05-05T06:57:39.095Z,17.00
2023-05-05T07:00:11.524Z,17.20
2023-05-05T07:02:40.238Z,17.20
2023-05-05T07:05:08.936Z,16.10
2023-05-05T07:07:38.456Z,17.90
2023-05-05T07:10:07.913Z,18.50
2023-05-05T07:12:36.252Z,16.20
2023-05-05T07:15:15.505Z,18.10
2023-05-05T07:17:47.641Z,16.50
2023-05-05T07:20:16.401Z,16.50
2023-05-05T07:22:44.572Z,15.30
2023-05-05T07:25:12.749Z,16.20
2023-05-05T07:27:41.119Z,15.20
2023-05-05T07:30:12.585Z,13.80
2023-05-05T07:32:41.630Z,15.70
2023-05-05T07:35:10.130Z,13.20
2023-05-05T07:37:38.316Z,16.00
2023-05-05T07:40:07.591Z,17.40
2023-05-05T07:42:36.116Z,16.90
2023-05-05T07:45:05.380Z,13.30
2023-05-05T07:47:33.632Z,12.80
2023-05-05T07:50:02.256Z,15.80
2023-05-05T07:52:44.999Z,14.70
2023-05-05T07:55:16.614Z,12.70
2023-05-05T07:57:44.789Z,12.80
2023-05-05T08:00:13.791Z,16.30
2023-05-05T08:02:42.035Z,14.60
2023-05-05T08:05:11.480Z,16.00
2023-05-05T08:07:41.746Z,13.70
2023-05-05T08:12:41.333Z,12.20
2023-05-05T08:15:10.412Z,15.10
2023-05-05T08:17:49.664Z,16.40
2023-05-05T08:20:19.720Z,15.80
2023-05-05T08:22:48.453Z,14.00
2023-05-05T08:25:16.598Z,14.80
2023-05-05T08:27:44.885Z,14.80
2023-05-05T08:30:13.528Z,12.50
2023-05-05T08:32:41.881Z,14.50
2023-05-05T08:35:10.760Z,15.40
2023-05-05T08:37:39.208Z,16.40
2023-05-05T08:40:08.085Z,17.10
2023-05-05T08:42:38.558Z,13.20
2023-05-05T08:45:09.017Z,14.20
2023-05-05T08:47:38.182Z,17.00
2023-05-05T08:50:07.821Z,14.60
2023-05-05T08:52:42.056Z,14.20
2023-05-05T08:55:24.500Z,15.50
2023-05-05T08:57:56.089Z,15.10
2023-05-05T09:00:26.673Z,14.30
2023-05-05T09:02:57.841Z,11.10
2023-05-05T09:05:26.903Z,11.90
2023-05-05T09:07:55.456Z,15.10
2023-05-05T09:10:25.268Z,10.70
2023-05-05T09:12:53.511Z,11.50
2023-05-05T09:15:21.745Z,12.40
2023-05-05T09:17:50.028Z,10.80
2023-05-05T09:20:18.376Z,9.50
2023-05-05T09:22:47.766Z,10.50
2023-05-05T09:25:17.745Z,10.30
2023-05-05T09:30:23.760Z,24.30
2023-05-05T09:32:55.896Z,10.80
2023-05-05T09:35:24.196Z,9.80
2023-05-05T09:37:52.379Z,8.70
2023-05-05T09:40:21.549Z,10.20
2023-05-05T09:43:01.326Z,8.30
2023-05-05T09:45:29.903Z,11.80
2023-05-05T09:48:00.268Z,13.80
2023-05-05T09:50:30.964Z,9.50
2023-05-05T09:53:03.757Z,10.30
2023-05-05T09:55:32.167Z,9.30
2023-05-05T09:58:26.456Z,9.80
2023-05-05T10:00:56.201Z,9.20
2023-05-05T10:05:57.759Z,10.10
2023-05-05T10:08:28.285Z,9.50
2023-05-05T10:11:07.232Z,9.30
2023-05-05T10:13:41.200Z,7.40
2023-05-05T10:16:09.955Z,9.70
2023-05-05T10:18:40.478Z,8.20
2023-05-05T10:21:09.421Z,9.40
2023-05-05T10:23:55.924Z,12.00
2023-05-05T10:26:26.456Z,7.20
2023-05-05T10:29:01.788Z,9.40
2023-05-05T10:31:37.788Z,6.90
2023-05-05T10:34:10.463Z,6.10
2023-05-05T10:36:39.728Z,7.40
2023-05-05T10:39:09.540Z,8.00
2023-05-05T10:41:38.242Z,7.70
2023-05-05T10:44:07.110Z,7.90
2023-05-05T10:46:35.373Z,6.10
2023-05-05T10:49:03.561Z,8.60
2023-05-05T10:51:48.452Z,6.80
2023-05-05T10:54:31.075Z,7.70
2023-05-05T10:57:02.789Z,6.70
2023-05-05T10:59:37.091Z,5.20
2023-05-05T11:02:25.684Z,4.00
2023-05-05T11:05:15.408Z,4.30
2023-05-05T11:10:15.195Z,5.50
2023-05-05T11:13:06.995Z,4.50
2023-05-05T11:15:37.959Z,4.60
2023-05-05T11:18:08.210Z,5.30
2023-05-05T11:20:40.203Z,4.50
2023-05-05T11:23:08.278Z,3.90
2023-05-05T11:25:37.080Z,4.70
2023-05-05T11:28:16.534Z,6.10
2023-05-05T11:31:04.761Z,3.90
2023-05-05T11:33:34.145Z,3.80
2023-05-05T11:36:07.328Z,4.40
2023-05-05T11:38:42.365Z,3.70
2023-05-05T11:41:10.449Z,4.50
2023-05-05T11:43:39.325Z,3.50
2023-05-05T11:46:15.263Z,6.00
2023-05-05T11:48:52.936Z,3.70
2023-05-05T11:51:22.393Z,3.10
2023-05-05T11:53:51.067Z,3.70
2023-05-05T11:56:20.685Z,3.10
2023-05-05T11:58:50.040Z,2.70
2023-05-05T12:01:18.337Z,3.10
2023-05-05T12:03:46.754Z,3.90
2023-05-05T12:06:15.091Z,4.30
2023-05-05T12:08:43.263Z,3.30
2023-05-05T12:11:11.849Z,3.00
2023-05-05T12:13:40.028Z,2.80
2023-05-05T12:16:15.457Z,4.60
2023-05-05T12:18:43.586Z,2.70
2023-05-05T12:21:18.524Z,2.60
2023-05-05T12:23:47.054Z,3.00
2023-05-05T12:26:32.126Z,2.80
2023-05-05T12:29:01.016Z,2.60
2023-05-05T12:31:36.475Z,4.30
2023-05-05T12:34:06.471Z,3.90
2023-05-05T12:36:35.151Z,3.80
2023-05-05T12:39:05.442Z,1.50
2023-05-05T12:41:34.326Z,2.70
2023-05-05T12:44:05.404Z,3.10
2023-05-05T12:46:45.784Z,6.60
2023-05-05T12:49:14.337Z,3.00
2023-05-05T12:51:56.439Z,2.70
2023-05-05T12:54:25.362Z,2.70
2023-05-05T12:56:53.502Z,3.40
2023-05-05T12:59:21.675Z,2.80
2023-05-05T13:01:51.050Z,2.40
2023-05-05T13:04:21.511Z,2.80
2023-05-05T13:06:56.643Z,5.60
2023-05-05T13:09:26.643Z,2.50
2023-05-05T13:11:55.132Z,4.80
2023-05-05T13:14:23.821Z,3.20
2023-05-05T13:16:53.214Z,3.90
2023-05-05T13:19:21.389Z,4.40
2023-05-05T13:21:49.681Z,1.80
2023-05-05T13:26:49.691Z,4.50
2023-05-05T13:31:46.425Z,4.70
2023-05-05T13:34:14.732Z,5.30
2023-05-05T13:36:42.792Z,2.50
2023-05-05T13:39:11.502Z,3.70
2023-05-05T13:41:39.859Z,3.60
2023-05-05T13:44:08.033Z,5.50
2023-05-05T13:46:36.335Z,5.00
2023-05-05T13:49:04.569Z,7.20
2023-05-05T13:51:35.135Z,9.50
2023-05-05T13:54:03.383Z,4.00
2023-05-05T13:56:31.755Z,10.40
2023-05-05T13:59:00.036Z,11.10
2023-05-05T14:01:28.482Z,6.60
2023-05-05T14:03:57.746Z,9.40
2023-05-05T14:06:26.535Z,7.40
2023-05-05T14:08:54.762Z,4.80
2023-05-05T14:11:23.022Z,8.60
2023-05-05T14:13:52.113Z,6.80
2023-05-05T14:16:20.381Z,8.30
2023-05-05T14:18:48.584Z,8.70
2023-05-05T14:21:16.963Z,5.10
2023-05-05T14:23:45.552Z,8.40
2023-05-05T14:26:13.712Z,5.50
2023-05-05T14:28:42.599Z,6.10
2023-05-05T14:31:11.400Z,8.70
2023-05-05T14:33:39.560Z,7.10
2023-05-05T14:36:08.353Z,7.00
2023-05-05T14:38:36.655Z,6.40
2023-05-05T14:41:05.298Z,7.60
2023-05-05T14:43:33.397Z,6.30
2023-05-05T14:46:06.828Z,6.10
2023-05-05T14:48:35.660Z,8.20
2023-05-05T14:51:04.849Z,5.90
2023-05-05T14:53:33.232Z,12.70
2023-05-05T14:56:02.711Z,6.10
2023-05-05T14:58:31.254Z,6.50
2023-05-05T15:01:00.724Z,8.20
2023-05-05T15:03:28.973Z,10.30
2023-05-05T15:05:57.368Z,8.30
2023-05-05T15:08:25.650Z,5.90
2023-05-05T15:10:53.920Z,6.60
2023-05-05T15:13:22.186Z,8.50
2023-05-05T15:15:51.484Z,6.70
2023-05-05T15:20:47.749Z,9.40
2023-05-05T15:23:16.315Z,7.20
2023-05-05T15:25:44.489Z,6.60
2023-05-05T15:28:12.663Z,8.50
2023-05-05T15:30:40.827Z,7.30
2023-05-05T15:33:08.894Z,10.60
2023-05-05T15:35:37.070Z,6.70
2023-05-05T15:38:05.138Z,6.80
2023-05-05T15:40:33.316Z,7.90
2023-05-05T15:43:01.691Z,5.60
2023-05-05T15:45:29.860Z,8.30
2023-05-05T15:47:58.068Z,6.30
2023-05-05T15:50:26.206Z,8.70
2023-05-05T15:52:57.114Z,9.10
2023-05-05T15:55:26.039Z,6.30
2023-05-05T15:57:54.631Z,8.80
2023-05-05T16:00:22.802Z,5.30
2023-05-05T16:02:51.015Z,7.50
2023-05-05T16:05:21.353Z,8.60
2023-05-05T16:07:52.112Z,7.20
2023-05-05T16:10:20.595Z,8.70
2023-05-05T16:12:48.975Z,5.00
2023-05-05T16:15:17.160Z,8.90
2023-05-05T16:17:45.268Z,6.00
2023-05-05T16:20:14.176Z,6.90
2023-05-05T16:22:42.484Z,32.30
2023-05-05T16:25:11.353Z,15.30
2023-05-05T16:27:39.645Z,6.20
2023-05-05T16:30:09.060Z,23.20
2023-05-05T16:32:37.123Z,8.40
2023-05-05T16:35:07.442Z,7.90
2023-05-05T16:37:35.925Z,10.90
2023-05-05T16:40:05.631Z,6.10
2023-05-05T16:42:33.724Z,6.10
2023-05-05T16:45:02.068Z,9.40
2023-05-05T16:47:30.301Z,8.20
2023-05-05T16:49:58.624Z,5.80
2023-05-05T16:52:26.903Z,9.20
2023-05-05T16:54:56.819Z,7.80
2023-05-05T16:59:55.812Z,10.90
2023-05-05T17:02:23.936Z,9.30
2023-05-05T17:04:52.873Z,10.10
2023-05-05T17:07:21.560Z,7.90
2023-05-05T17:09:49.614Z,7.50
2023-05-05T17:12:17.917Z,11.20
2023-05-05T17:14:46.206Z,8.00
2023-05-05T17:17:14.561Z,6.90
2023-05-05T17:19:42.947Z,9.50
2023-05-05T17:22:11.104Z,7.10
2023-05-05T17:24:39.177Z,9.20
2023-05-05T17:27:07.376Z,11.90
2023-05-05T17:29:40.868Z,6.60
2023-05-05T17:32:09.413Z,11.70
2023-05-05T17:34:37.907Z,7.30
2023-05-05T17:37:06.078Z,6.50
2023-05-05T17:39:34.712Z,9.60
2023-05-05T17:42:03.065Z,7.20
2023-05-05T17:44:32.749Z,6.80
2023-05-05T17:47:02.861Z,6.30
2023-05-05T17:49:31.344Z,6.30
2023-05-05T17:51:59.547Z,6.90
2023-05-05T17:54:27.689Z,8.20
2023-05-05T17:56:55.772Z,12.10
2023-05-05T17:59:23.835Z,10.20
2023-05-05T18:01:52.006Z,8.70
2023-05-05T18:04:20.080Z,7.10
2023-05-05T18:06:48.466Z,7.40
2023-05-05T18:09:17.445Z,10.30
2023-05-05T18:11:45.717Z,11.30
2023-05-05T18:14:13.806Z,11.00
2023-05-05T18:16:47.766Z,11.30
2023-05-05T18:19:16.994Z,10.50
2023-05-05T18:21:45.165Z,12.10
2023-05-05T18:24:20.000Z,13.90
2023-05-05T18:26:50.723Z,10.00
2023-05-05T18:29:20.234Z,9.70
2023-05-05T18:31:53.132Z,9.30
2023-05-05T18:34:21.521Z,9.60
2023-05-05T18:36:51.381Z,9.40
2023-05-05T18:39:20.435Z,8.80
2023-05-05T18:41:48.570Z,7.90
2023-05-05T18:44:16.733Z,11.40
2023-05-05T18:46:47.057Z,10.40
2023-05-05T18:49:15.644Z,11.80
2023-05-05T18:51:44.233Z,7.70
2023-05-05T18:54:12.395Z,11.10
2023-05-05T18:56:40.876Z,9.70
2023-05-05T18:59:08.952Z,10.30
2023-05-05T19:01:37.145Z,7.50
2023-05-05T19:06:53.637Z,12.90
2023-05-05T19:09:22.012Z,13.00
2023-05-05T19:11:50.083Z,8.20
2023-05-05T19:14:18.254Z,12.80
2023-05-05T19:16:46.456Z,9.60
2023-05-05T19:19:14.702Z,8.80
2023-05-05T19:21:42.874Z,12.00
2023-05-05T19:24:11.797Z,10.90
2023-05-05T19:26:40.058Z,9.70
2023-05-05T19:29:08.307Z,12.30
2023-05-05T19:31:36.834Z,10.70
2023-05-05T19:34:05.474Z,8.00
2023-05-05T19:36:34.788Z,13.80
2023-05-05T19:39:04.179Z,15.70
2023-05-05T19:41:32.862Z,8.10
2023-05-05T19:44:01.028Z,11.70
2023-05-05T19:46:29.330Z,8.50
2023-05-05T19:48:57.577Z,9.30
2023-05-05T19:51:26.362Z,12.80
2023-05-05T19:53:54.433Z,12.70
2023-05-05T19:56:23.321Z,10.70
2023-05-05T19:59:06.474Z,14.80
2023-05-05T20:01:35.436Z,9.30
2023-05-05T20:04:03.981Z,14.10
2023-05-05T20:06:33.124Z,11.20
2023-05-05T20:09:02.105Z,10.40
2023-05-05T20:11:30.579Z,12.20
2023-05-05T20:13:59.174Z,12.10
2023-05-05T20:16:27.475Z,11.50
2023-05-05T20:18:56.003Z,13.70
2023-05-05T20:21:24.089Z,10.70
2023-05-05T20:23:54.665Z,9.00
2023-05-05T20:26:24.600Z,13.10
2023-05-05T20:28:53.034Z,10.00
2023-05-05T20:31:21.368Z,12.20
2023-05-05T20:33:49.682Z,10.70
2023-05-05T20:36:18.255Z,9.20
2023-05-05T20:38:46.421Z,13.30
2023-05-05T20:41:14.597Z,8.80
2023-05-05T20:43:42.871Z,11.10
2023-05-05T20:46:13.893Z,10.90
2023-05-05T20:48:42.942Z,10.70
2023-05-05T20:51:11.508Z,8.60
2023-05-05T20:53:39.683Z,10.20
2023-05-05T20:56:08.789Z,10.40
2023-05-05T20:58:37.348Z,11.40
2023-05-05T21:01:05.551Z,10.80
2023-05-05T21:03:33.781Z,11.10
2023-05-05T21:06:02.156Z,9.70
2023-05-05T21:08:30.840Z,13.40
2023-05-05T21:10:58.907Z,10.30
2023-05-05T21:13:28.100Z,12.80
2023-05-05T21:15:56.278Z,10.60
2023-05-05T21:18:26.083Z,11.00
2023-05-05T21:20:54.365Z,9.10
2023-05-05T21:23:22.527Z,6.90
2023-05-05T21:25:50.805Z,10.20
2023-05-05T21:28:18.977Z,11.50
2023-05-05T21:30:59.411Z,10.60
2023-05-05T21:33:35.395Z,7.60
2023-05-05T21:36:04.059Z,8.10
2023-05-05T21:38:32.147Z,10.60
2023-05-05T21:41:00.529Z,12.90
2023-05-05T21:43:29.006Z,12.70
2023-05-05T21:46:01.024Z,12.20
2023-05-05T21:48:29.459Z,12.50
2023-05-05T21:50:57.824Z,15.60
2023-05-05T21:53:25.998Z,9.50
2023-05-05T21:55:54.177Z,9.90
2023-05-05T21:58:25.046Z,10.20
2023-05-05T22:00:53.381Z,10.60
2023-05-05T22:03:21.718Z,9.20
2023-05-05T22:05:49.828Z,11.20
2023-05-05T22:08:19.231Z,7.90
2023-05-05T22:10:47.812Z,11.90
2023-05-05T22:13:16.168Z,9.80
2023-05-05T22:15:47.176Z,9.20
2023-05-05T22:18:16.117Z,8.40
2023-05-05T22:20:44.387Z,10.30
2023-05-05T22:23:14.166Z,10.00
2023-05-05T22:25:42.379Z,10.00
2023-05-05T22:28:11.673Z,10.00
2023-05-05T22:30:39.842Z,10.00
2023-05-05T22:33:08.197Z,9.10
2023-05-05T22:35:37.824Z,10.20
2023-05-05T22:38:06.720Z,10.70
2023-05-05T22:40:36.013Z,8.50
2023-05-05T22:43:04.199Z,14.60
2023-05-05T22:45:33.174Z,11.60
2023-05-05T22:48:01.411Z,10.50
2023-05-05T22:50:29.627Z,8.60
2023-05-05T22:52:57.697Z,8.60
2023-05-05T22:55:26.172Z,8.90
2023-05-05T22:57:54.452Z,10.90
2023-05-05T23:00:22.930Z,8.40
2023-05-05T23:02:51.136Z,11.60
2023-05-05T23:05:19.375Z,7.30
2023-05-05T23:07:47.557Z,8.70
2023-05-05T23:10:15.823Z,8.30
2023-05-05T23:12:44.026Z,8.80
2023-05-05T23:15:12.405Z,8.80
2023-05-05T23:17:40.864Z,9.00
2023-05-05T23:20:12.093Z,9.20
2023-05-05T23:22:40.176Z,10.50
2023-05-05T23:25:09.257Z,9.00
2023-05-05T23:27:39.627Z,8.20
2023-05-05T23:30:09.139Z,8.70
2023-05-05T23:32:37.670Z,12.00
2023-05-05T23:35:06.815Z,10.10
2023-05-05T23:37:35.041Z,11.00
2023-05-05T23:40:03.411Z,10.60
2023-05-05T23:42:31.587Z,9.30
2023-05-05T23:44:59.763Z,8.50
2023-05-05T23:47:27.846Z,10.70
2023-05-05T23:49:56.104Z,10.60
2023-05-05T23:52:24.400Z,10.30
2023-05-05T23:54:52.558Z,11.00
2023-05-05T23:57:20.921Z,11.00
2023-05-05T23:59:49.095Z,11.10
